Time;durP1;ratioP1;P1;durP2;ratioP2;P2;SDS_P1;SDS_P2;PMS_P1;PMS_P2;Temp;Humidity;BMP_temperature;BMP_pressure;BME280_temperature;BME280_humidity;BME280_pressure;Samples;Min_cycle;Max_cycle;Signal;HPM_P1;HPM_P2
2021/09/17 00:01:27;;;;;;;14.33;7.33;;;;;;;13.82;59.46;99364.81;1627890;86;21017;-79
2021/09/17 00:03:59;;;;;;;23.60;8.50;;;;;;;13.84;59.45;99362.52;1628437;86;21047;-79
2021/09/17 00:06:32;;;;;;;19.07;6.87;;;;;;;13.86;59.12;99358.05;1625867;87;20978;-79
2021/09/17 00:09:04;;;;;;;13.40;7.35;;;;;;;13.89;59.20;99358.13;1583298;88;21044;-79
2021/09/17 00:11:33;;;;;;;21.02;7.62;;;;;;;13.89;59.16;99355.38;1658304;86;20927;-78
2021/09/17 00:14:01;;;;;;;18.98;8.00;;;;;;;13.91;59.03;99357.80;1658776;86;21455;-78
2021/09/17 00:16:35;;;;;;;21.55;8.50;;;;;;;13.92;58.90;99348.94;1658057;85;21071;-80
2021/09/17 00:19:07;;;;;;;18.15;7.55;;;;;;;13.92;58.57;99348.37;1653572;85;20939;-80
2021/09/17 00:21:36;;;;;;;29.40;8.40;;;;;;;13.93;58.58;99345.03;1633040;86;20958;-82
2021/09/17 00:24:08;;;;;;;34.10;8.80;;;;;;;13.93;58.58;99344.45;1634537;86;20896;-83
2021/09/17 00:26:45;;;;;;;26.40;9.18;;;;;;;13.96;58.80;99336.07;1636781;86;21583;-82
2021/09/17 00:29:13;;;;;;;23.18;8.43;;;;;;;13.98;58.60;99339.30;1634497;86;21674;-82
2021/09/17 00:31:45;;;;;;;23.10;8.00;;;;;;;13.99;58.92;99334.00;1629088;86;20929;-79
2021/09/17 00:34:18;;;;;;;29.77;8.70;;;;;;;13.99;58.83;99336.19;1639938;86;20945;-78
2021/09/17 00:36:48;;;;;;;26.57;8.05;;;;;;;14.00;58.68;99337.80;1624742;87;21108;-79
2021/09/17 00:39:25;;;;;;;18.17;7.08;;;;;;;14.03;58.33;99337.11;1611654;86;21009;-79
2021/09/17 00:41:57;;;;;;;20.75;6.67;;;;;;;14.05;58.56;99334.02;1636605;86;21032;-80
2021/09/17 00:44:29;;;;;;;11.50;6.03;;;;;;;14.06;58.77;99328.15;1640077;86;21022;-79
2021/09/17 00:47:01;;;;;;;20.37;6.60;;;;;;;14.07;57.91;99327.58;1636324;86;20984;-78
2021/09/17 00:49:34;;;;;;;17.17;6.58;;;;;;;14.09;58.02;99326.08;1660545;86;21941;-78
2021/09/17 00:52:05;;;;;;;17.17;6.25;;;;;;;14.11;57.77;99315.50;1663580;86;20953;-79
2021/09/17 00:54:40;;;;;;;19.00;6.08;;;;;;;14.13;57.80;99315.16;1663554;86;21432;-78
2021/09/17 00:57:10;;;;;;;13.32;5.75;;;;;;;14.15;57.61;99311.48;1658301;86;21031;-79
2021/09/17 00:59:41;;;;;;;14.43;5.30;;;;;;;14.16;57.86;99306.19;1638876;86;21008;-81
2021/09/17 01:02:14;;;;;;;18.45;5.92;;;;;;;14.17;57.92;99301.70;1650698;85;21143;-80
2021/09/17 01:04:48;;;;;;;12.45;5.70;;;;;;;14.19;57.60;99295.84;1658082;86;21490;-81
2021/09/17 01:07:20;;;;;;;17.32;5.97;;;;;;;14.20;57.88;99291.92;1668727;86;20999;-80
2021/09/17 01:09:54;;;;;;;13.15;5.25;;;;;;;14.20;58.25;99280.88;1662926;86;20976;-81
2021/09/17 01:12:26;;;;;;;14.23;5.53;;;;;;;14.20;57.66;99278.92;1638877;86;21023;-85
2021/09/17 01:14:57;;;;;;;15.05;6.00;;;;;;;14.23;57.81;99282.14;1631965;87;20977;-83
2021/09/17 01:17:34;;;;;;;13.43;5.30;;;;;;;14.24;57.65;99279.04;1599802;88;21109;-81
2021/09/17 01:20:02;;;;;;;22.82;6.72;;;;;;;14.26;57.34;99272.59;1655525;85;21009;-83
2021/09/17 01:22:35;;;;;;;20.12;5.95;;;;;;;14.29;57.36;99269.72;1664941;85;21031;-85
2021/09/17 01:25:11;;;;;;;20.40;6.00;;;;;;;14.30;57.33;99274.89;1661389;84;21587;-84
2021/09/17 01:27:40;;;;;;;27.10;6.45;;;;;;;14.32;56.95;99268.45;1654464;86;21165;-80
2021/09/17 01:30:12;;;;;;;16.35;6.10;;;;;;;14.34;57.24;99273.05;1634993;86;21567;-78
2021/09/17 01:32:48;;;;;;;19.75;5.62;;;;;;;14.35;56.93;99262.81;1657434;86;20944;-76
2021/09/17 01:35:21;;;;;;;24.92;6.85;;;;;;;14.36;56.93;99263.03;1627828;86;21044;-76
2021/09/17 01:37:52;;;;;;;20.30;5.70;;;;;;;14.36;56.74;99256.94;1607453;86;21023;-76
2021/09/17 01:40:25;;;;;;;17.17;6.22;;;;;;;14.38;57.18;99263.49;1636788;86;21911;-82
2021/09/17 01:42:57;;;;;;;24.77;6.72;;;;;;;14.36;57.13;99257.52;1655059;85;21603;-84
2021/09/17 01:45:34;;;;;;;27.50;6.25;;;;;;;14.34;56.70;99250.95;1630814;86;21168;-83
2021/09/17 01:48:08;;;;;;;17.10;5.60;;;;;;;14.33;56.98;99248.55;1658279;86;21732;-83
2021/09/17 01:50:37;;;;;;;14.85;4.75;;;;;;;14.30;56.85;99240.38;1624670;86;21036;-84
2021/09/17 01:53:06;;;;;;;16.27;5.58;;;;;;;14.27;56.98;99230.03;1664060;86;21121;-80
2021/09/17 01:55:39;;;;;;;11.50;4.40;;;;;;;14.24;57.39;99236.25;1662310;85;20980;-81
2021/09/17 01:58:08;;;;;;;11.33;4.70;;;;;;;14.17;57.38;99228.55;1655512;85;21076;-83
2021/09/17 02:00:49;;;;;;;11.90;4.20;;;;;;;14.13;57.47;99226.83;1656729;85;21063;-84
2021/09/17 02:03:16;;;;;;;7.65;4.10;;;;;;;14.08;57.65;99227.06;1606670;87;21038;-84
2021/09/17 02:05:49;;;;;;;10.75;5.03;;;;;;;14.02;57.73;99224.30;1632531;86;20938;-82
2021/09/17 02:08:21;;;;;;;11.75;4.55;;;;;;;13.97;58.04;99217.64;1654764;85;20965;-82
2021/09/17 02:10:51;;;;;;;11.35;4.67;;;;;;;13.91;58.35;99224.53;1651665;86;21013;-86
2021/09/17 02:13:27;;;;;;;9.68;4.70;;;;;;;13.87;58.37;99213.38;1658730;85;20960;-81
2021/09/17 02:15:54;;;;;;;10.40;4.50;;;;;;;13.84;58.04;99210.77;1653194;86;21075;-80
2021/09/17 02:18:26;;;;;;;13.80;4.25;;;;;;;13.83;58.34;99204.22;1638565;86;20952;-79
2021/09/17 02:20:54;;;;;;;10.13;3.83;;;;;;;13.83;58.00;99200.89;1664685;86;21463;-76
2021/09/17 02:23:30;;;;;;;12.60;4.08;;;;;;;13.83;57.91;99196.75;1660385;84;22443;-75
2021/09/17 02:25:58;;;;;;;11.33;3.95;;;;;;;13.87;57.61;99196.83;1655566;86;21035;-80
2021/09/17 02:28:26;;;;;;;9.78;4.28;;;;;;;13.89;57.52;99199.48;1654567;86;21058;-76
2021/09/17 02:30:57;;;;;;;9.00;3.50;;;;;;;13.91;57.49;99196.95;1654704;86;21229;-76
2021/09/17 02:33:27;;;;;;;12.60;3.83;;;;;;;13.93;57.14;99191.31;1654441;86;21021;-76
2021/09/17 02:35:57;;;;;;;7.70;3.77;;;;;;;13.95;57.16;99189.01;1633764;86;20968;-77
2021/09/17 02:38:35;;;;;;;9.35;3.40;;;;;;;13.96;56.46;99189.81;1642732;86;21067;-77
2021/09/17 02:41:01;;;;;;;8.33;3.25;;;;;;;13.97;56.97;99187.28;1642690;87;20959;-77
2021/09/17 02:43:31;;;;;;;8.40;3.90;;;;;;;13.97;56.95;99180.38;1626694;87;20975;-78
2021/09/17 02:46:00;;;;;;;6.72;3.80;;;;;;;13.96;57.01;99178.20;1644788;86;20961;-78
2021/09/17 02:48:29;;;;;;;9.83;3.80;;;;;;;13.96;57.31;99173.25;1643116;87;21024;-77
2021/09/17 02:51:06;;;;;;;8.75;3.65;;;;;;;13.94;57.41;99174.17;1645013;86;20924;-76
2021/09/17 02:53:39;;;;;;;9.88;3.37;;;;;;;13.94;57.22;99167.28;1626544;87;21532;-76
2021/09/17 02:56:09;;;;;;;7.42;3.30;;;;;;;13.94;57.03;99163.14;1645201;87;21549;-76
2021/09/17 02:58:42;;;;;;;;;;;;;;;13.95;57.33;99160.03;1649624;87;21007;-76
2021/09/17 03:01:14;;;;;;;9.83;4.17;;;;;;;13.95;57.41;99159.23;1649686;85;20089;-75
2021/09/17 03:03:45;;;;;;;11.65;3.58;;;;;;;13.92;57.99;99158.55;1652241;86;22109;-76
2021/09/17 03:06:22;;;;;;;8.63;3.93;;;;;;;13.88;58.03;99153.72;1654482;86;20962;-77
2021/09/17 03:09:00;;;;;;;7.90;3.87;;;;;;;13.85;58.14;99146.73;1649607;86;21462;-79
2021/09/17 03:11:23;;;;;;;14.23;4.35;;;;;;;13.84;58.41;99147.31;1651470;86;21130;-76
2021/09/17 03:13:56;;;;;;;7.47;4.08;;;;;;;13.83;57.93;99140.77;1652843;86;21518;-78
2021/09/17 03:16:35;;;;;;;18.20;3.87;;;;;;;13.83;57.76;99147.09;1656122;85;21002;-78
2021/09/17 03:19:08;;;;;;;7.85;3.58;;;;;;;13.84;57.94;99147.31;1659369;86;21004;-77
2021/09/17 03:21:39;;;;;;;11.43;3.58;;;;;;;13.83;57.43;99141.57;1658911;86;21900;-78
2021/09/17 03:24:12;;;;;;;12.43;3.77;;;;;;;13.85;57.62;99143.41;1660097;86;21159;-79
2021/09/17 03:26:43;;;;;;;6.10;3.47;;;;;;;13.86;57.76;99144.98;1655706;85;20934;-77
2021/09/17 03:29:11;;;;;;;7.75;4.10;;;;;;;13.87;58.13;99138.89;1638470;86;20939;-77
2021/09/17 03:31:40;;;;;;;6.22;3.58;;;;;;;13.87;58.00;99145.21;1644874;86;21025;-83
2021/09/17 03:34:10;;;;;;;9.48;4.00;;;;;;;13.86;57.83;99140.07;1658999;86;21101;-81
2021/09/17 03:36:48;;;;;;;13.45;3.47;;;;;;;13.86;58.04;99138.09;1636238;86;20942;-85
2021/09/17 03:39:17;;;;;;;11.70;4.33;;;;;;;13.85;58.05;99129.61;1654909;86;20957;-84
2021/09/17 03:41:51;;;;;;;11.43;4.05;;;;;;;13.85;57.79;99132.95;1657690;86;21078;-83
2021/09/17 03:44:21;;;;;;;14.63;4.28;;;;;;;13.84;57.84;99125.24;1655708;85;21646;-84
2021/09/17 03:46:51;;;;;;;7.40;3.80;;;;;;;13.85;58.57;99122.72;1658686;86;21172;-81
2021/09/17 03:49:21;;;;;;;11.20;4.45;;;;;;;13.85;57.79;99119.15;1665479;85;21099;-81
2021/09/17 03:51:50;;;;;;;9.78;3.50;;;;;;;13.84;57.78;99121.68;1629242;87;20953;-81
2021/09/17 03:54:21;;;;;;;8.88;3.47;;;;;;;13.84;58.29;99121.68;1610672;87;21104;-82
2021/09/17 03:56:50;;;;;;;11.15;3.83;;;;;;;13.81;58.19;99114.91;1603301;88;21001;-83
2021/09/17 03:59:25;;;;;;;10.00;4.10;;;;;;;13.78;58.21;99110.08;1655887;86;21129;-82
2021/09/17 04:02:01;;;;;;;8.65;3.80;;;;;;;13.78;58.04;99114.80;1654311;86;20916;-81
2021/09/17 04:04:29;;;;;;;8.90;4.35;;;;;;;13.77;58.53;99113.98;1654387;86;21014;-81
2021/09/17 04:07:01;;;;;;;10.15;3.50;;;;;;;13.76;58.72;99112.38;1654556;86;20963;-87
2021/09/17 04:09:35;;;;;;;9.75;3.67;;;;;;;13.76;59.26;99112.95;1647584;85;21031;-85
2021/09/17 04:12:12;;;;;;;9.75;3.72;;;;;;;13.74;59.22;99108.36;1614706;86;21049;-84
2021/09/17 04:14:47;;;;;;;11.28;4.15;;;;;;;13.72;59.36;99107.33;1654361;86;21495;-86
2021/09/17 04:17:28;;;;;;;11.80;4.00;;;;;;;13.74;59.58;99106.98;1635838;86;20967;-87
2021/09/17 04:19:59;;;;;;;11.73;4.75;;;;;;;13.75;59.91;99101.69;1654303;86;21507;-84
2021/09/17 04:22:34;;;;;;;16.37;4.25;;;;;;;13.75;59.98;99101.12;1654532;86;20959;-80
2021/09/17 04:25:09;;;;;;;16.42;4.47;;;;;;;13.78;60.20;99099.62;1654282;85;20951;-83
2021/09/17 04:27:44;;;;;;;10.20;4.05;;;;;;;13.81;60.41;99094.78;1654385;86;20971;-84
2021/09/17 04:30:13;;;;;;;7.87;3.90;;;;;;;13.85;60.56;99092.36;1654480;85;20995;-84
2021/09/17 04:32:44;;;;;;;12.07;4.58;;;;;;;13.89;60.63;99084.16;1654358;86;20963;-78
2021/09/17 04:35:15;;;;;;;14.00;4.62;;;;;;;13.94;61.01;99087.26;1643768;85;20967;-86
2021/09/17 04:37:56;;;;;;;9.60;4.30;;;;;;;14.01;61.08;99086.89;1651063;86;21172;-80
2021/09/17 04:40:23;;;;;;;11.08;4.25;;;;;;;14.08;61.21;99080.78;1654176;85;21070;-80
2021/09/17 04:42:56;;;;;;;11.28;4.85;;;;;;;14.14;61.30;99077.42;1654727;85;21549;-81
2021/09/17 04:45:29;;;;;;;18.20;4.58;;;;;;;14.20;61.21;99085.68;1654560;85;20907;-81
2021/09/17 04:48:02;;;;;;;15.60;5.17;;;;;;;14.24;61.48;99083.02;1654461;86;21526;-81
2021/09/17 04:50:30;;;;;;;15.80;5.10;;;;;;;14.26;61.65;99086.81;1635830;86;20911;-81
2021/09/17 04:53:05;;;;;;;11.63;4.73;;;;;;;14.27;62.27;99074.62;1654632;86;20880;-81
2021/09/17 04:55:32;;;;;;;22.15;5.17;;;;;;;14.27;62.47;99082.32;1654434;86;20994;-82
2021/09/17 04:58:07;;;;;;;14.93;5.12;;;;;;;14.27;62.65;99079.56;1654451;86;20959;-81
2021/09/17 05:00:43;;;;;;;18.10;4.97;;;;;;;14.28;62.92;99075.64;1680530;85;21602;-81
2021/09/17 05:03:20;;;;;;;15.05;5.50;;;;;;;14.31;63.33;99078.28;1680598;85;21002;-81
2021/09/17 05:05:49;;;;;;;10.88;4.55;;;;;;;14.33;63.57;99077.36;1654486;86;20959;-82
2021/09/17 05:08:17;;;;;;;11.30;4.53;;;;;;;14.34;63.30;99078.38;1654404;86;20912;-82
2021/09/17 05:10:49;;;;;;;13.40;5.12;;;;;;;14.36;63.77;99076.08;1654311;86;20963;-81
2021/09/17 05:13:18;;;;;;;15.05;5.58;;;;;;;14.38;63.86;99076.52;1654464;86;20998;-80
2021/09/17 05:15:52;;;;;;;28.60;5.72;;;;;;;14.41;64.20;99063.42;1654445;86;21435;-85
2021/09/17 05:18:18;;;;;;;17.37;5.50;;;;;;;14.43;64.53;99066.64;1654278;86;21006;-85
2021/09/17 05:20:46;;;;;;;21.42;5.70;;;;;;;14.48;64.54;99064.17;1654388;86;21046;-86
2021/09/17 05:23:16;;;;;;;16.17;5.78;;;;;;;14.51;64.70;99061.50;1597596;89;21004;-86
2021/09/17 05:25:49;;;;;;;14.45;5.55;;;;;;;14.54;64.71;99056.66;1658740;86;20964;-85
2021/09/17 05:28:21;;;;;;;20.88;5.47;;;;;;;14.57;64.95;99063.43;1647064;85;20998;-86
2021/09/17 05:30:50;;;;;;;20.75;5.87;;;;;;;14.62;65.12;99048.56;1653972;86;21015;-86
2021/09/17 05:33:19;;;;;;;15.18;4.85;;;;;;;14.65;65.41;99060.28;1654230;86;21042;-86
2021/09/17 05:35:52;;;;;;;13.10;5.05;;;;;;;14.68;65.47;99059.57;1654324;86;21438;-86
2021/09/17 05:38:25;;;;;;;12.18;4.65;;;;;;;14.72;65.70;99060.47;1654774;86;20948;-85
2021/09/17 05:40:53;;;;;;;13.83;5.20;;;;;;;14.74;65.92;99055.39;1654958;86;21829;-85
2021/09/17 05:43:26;;;;;;;24.90;7.08;;;;;;;14.74;66.15;99051.25;1677027;85;21541;-85
2021/09/17 05:46:01;;;;;;;17.23;7.40;;;;;;;14.75;66.20;99046.75;1654823;86;21491;-85
2021/09/17 05:48:31;;;;;;;27.50;8.00;;;;;;;14.76;66.44;99047.55;1654377;86;20979;-83
2021/09/17 05:51:01;;;;;;;19.48;10.25;;;;;;;14.78;66.62;99042.47;1654023;86;20907;-83
2021/09/17 05:53:30;;;;;;;25.68;10.23;;;;;;;14.79;66.90;99042.12;1654592;86;21147;-84
2021/09/17 05:55:58;;;;;;;23.00;8.05;;;;;;;14.80;67.10;99040.95;1653957;85;21562;-81
2021/09/17 05:58:34;;;;;;;31.85;16.07;;;;;;;14.82;67.15;99035.08;1660038;86;21038;-84
2021/09/17 06:01:10;;;;;;;39.18;17.30;;;;;;;14.83;67.43;99034.72;1663906;86;20923;-79
2021/09/17 06:03:42;;;;;;;48.40;21.82;;;;;;;14.84;67.69;99027.23;1656135;86;21015;-77
2021/09/17 06:06:11;;;;;;;36.80;15.37;;;;;;;14.87;67.95;99030.67;1654679;86;21229;-77
2021/09/17 06:08:43;;;;;;;34.58;13.90;;;;;;;14.93;67.88;99025.67;1621232;86;20983;-79
2021/09/17 06:11:16;;;;;;;23.60;11.45;;;;;;;14.94;67.86;99029.47;1652336;86;20915;-77
2021/09/17 06:13:44;;;;;;;45.95;22.10;;;;;;;14.95;68.17;99026.13;1677628;84;21037;-81
2021/09/17 06:16:13;;;;;;;27.82;10.05;;;;;;;14.96;68.48;99028.53;1651926;86;20920;-83
2021/09/17 06:18:41;;;;;;;29.23;10.00;;;;;;;14.98;68.65;99032.31;1578297;89;21476;-72
2021/09/17 06:21:13;;;;;;;32.05;13.88;;;;;;;14.97;69.30;99013.55;1616640;87;20982;-75
2021/09/17 06:23:41;;;;;;;46.98;23.62;;;;;;;14.98;69.36;99017.11;1637035;86;20995;-81
2021/09/17 06:26:12;;;;;;;34.90;16.93;;;;;;;14.98;69.45;99012.39;1666610;84;21012;-82
2021/09/17 06:28:39;;;;;;;39.25;19.20;;;;;;;15.00;69.58;99007.30;1636199;86;21523;-77
2021/09/17 06:31:12;;;;;;;36.00;15.40;;;;;;;15.06;69.91;99007.80;1638093;86;21020;-76
2021/09/17 06:33:43;;;;;;;34.08;13.65;;;;;;;15.12;70.33;99008.56;1642955;86;21537;-75
2021/09/17 06:36:15;;;;;;;;;;;;;;;15.18;70.33;99007.12;1627256;87;20921;-76
2021/09/17 06:38:50;;;;;;;22.87;8.23;;;;;;;15.24;70.41;99006.85;1644107;86;20442;-75
2021/09/17 06:41:24;;;;;;;18.17;7.35;;;;;;;15.29;70.72;99003.23;1640881;86;21010;-75
2021/09/17 06:43:57;;;;;;;21.65;8.40;;;;;;;15.35;70.72;98996.84;1639937;85;21806;-82
2021/09/17 06:46:28;;;;;;;408.77;160.63;;;;;;;15.44;70.89;98997.44;1636942;87;21094;-74
2021/09/17 06:48:57;;;;;;;72.67;34.15;;;;;;;15.51;70.81;98994.25;1634900;86;21144;-83
2021/09/17 06:51:25;;;;;;;25.75;11.10;;;;;;;15.61;70.95;98994.27;1637827;86;21035;-85
2021/09/17 06:54:10;;;;;;;108.03;51.28;;;;;;;15.71;70.82;98993.70;1648892;87;21009;-84
2021/09/17 06:56:42;;;;;;;29.37;15.68;;;;;;;15.83;70.97;98985.25;1596288;87;21028;-78
2021/09/17 06:59:13;;;;;;;33.20;18.92;;;;;;;15.97;70.72;98993.63;1611773;87;21213;-80
2021/09/17 07:01:45;;;;;;;35.60;16.35;;;;;;;16.05;70.67;98980.16;1657070;85;20912;-83
2021/09/17 07:04:18;;;;;;;72.45;43.87;;;;;;;16.13;70.47;98985.47;1636647;86;21028;-84
2021/09/17 07:06:48;;;;;;;51.35;29.95;;;;;;;16.20;70.55;98983.39;1658790;85;20992;-76
2021/09/17 07:09:26;;;;;;;35.25;16.97;;;;;;;16.25;70.58;98985.05;1662887;86;20905;-80
2021/09/17 07:11:56;;;;;;;35.85;12.07;;;;;;;16.29;70.82;98985.92;1661792;86;20941;-75
2021/09/17 07:14:22;;;;;;;41.33;11.03;;;;;;;16.33;71.12;98987.59;1667387;84;20975;-74
2021/09/17 07:16:51;;;;;;;54.73;11.68;;;;;;;16.43;71.57;98994.50;1646972;85;21471;-73
2021/09/17 07:19:24;;;;;;;20.90;8.23;;;;;;;16.50;71.74;98998.79;1649939;85;21006;-75
2021/09/17 07:21:49;;;;;;;20.57;7.78;;;;;;;16.60;71.21;99006.50;1642317;86;21176;-76
2021/09/17 07:24:21;;;;;;;21.33;8.83;;;;;;;16.62;70.75;98993.07;1659059;85;21048;-79
2021/09/17 07:26:51;;;;;;;25.50;8.33;;;;;;;16.63;70.97;98993.88;1640755;86;21478;-80
2021/09/17 07:29:23;;;;;;;21.50;8.10;;;;;;;16.65;70.96;98987.41;1610403;86;21088;-77
2021/09/17 07:31:51;;;;;;;27.95;8.38;;;;;;;16.69;70.94;98987.69;1624816;86;21053;-82
2021/09/17 07:34:19;;;;;;;14.70;7.20;;;;;;;16.75;70.68;98976.48;1624129;86;21978;-76
2021/09/17 07:36:46;;;;;;;19.32;7.95;;;;;;;16.82;70.32;98971.63;1635666;87;20935;-78
2021/09/17 07:39:15;;;;;;;36.33;10.90;;;;;;;16.89;70.87;98970.37;1637348;85;21101;-78
2021/09/17 07:41:43;;;;;;;45.48;11.43;;;;;;;16.99;70.97;98967.55;1648767;86;21551;-77
2021/09/17 07:44:17;;;;;;;25.52;9.45;;;;;;;17.09;70.90;98975.23;1617509;87;25418;-75
2021/09/17 07:46:49;;;;;;;47.03;11.97;;;;;;;17.17;70.64;98970.02;1635557;87;21584;-74
2021/09/17 07:49:20;;;;;;;59.30;11.43;;;;;;;17.20;70.47;98972.63;1628671;86;21537;-76
2021/09/17 07:51:51;;;;;;;32.48;10.40;;;;;;;17.24;70.30;98962.39;1623347;86;21097;-74
2021/09/17 07:54:24;;;;;;;26.15;9.18;;;;;;;17.30;70.32;98960.30;1639544;87;21178;-76
2021/09/17 07:56:55;;;;;;;37.05;10.55;;;;;;;17.36;69.88;98967.69;1618234;86;21030;-77
2021/09/17 07:59:27;;;;;;;29.95;8.30;;;;;;;17.42;70.24;98966.19;1600914;88;21090;-75
2021/09/17 08:02:00;;;;;;;33.25;9.63;;;;;;;17.53;70.04;98971.30;1650350;85;21051;-75
2021/09/17 08:04:30;;;;;;;39.33;10.03;;;;;;;17.65;70.01;98963.33;1641519;85;21056;-76
2021/09/17 08:07:00;;;;;;;27.27;10.28;;;;;;;17.77;70.21;98963.92;1650873;85;20973;-78
2021/09/17 08:09:30;;;;;;;43.90;12.00;;;;;;;17.90;69.45;98962.28;1654087;86;21241;-78
2021/09/17 08:11:59;;;;;;;44.03;13.55;;;;;;;17.97;69.67;98954.81;1643740;86;21065;-82
2021/09/17 08:14:39;;;;;;;50.20;13.05;;;;;;;18.05;69.41;98951.52;1617917;86;21116;-76
2021/09/17 08:17:01;;;;;;;38.92;10.72;;;;;;;18.09;69.29;98948.20;1635029;86;20996;-76
2021/09/17 08:19:34;;;;;;;39.48;12.43;;;;;;;18.17;69.29;98940.75;1642247;86;21704;-75
2021/09/17 08:22:05;;;;;;;28.30;9.95;;;;;;;18.26;70.09;98941.23;1629972;86;21038;-75
2021/09/17 08:24:37;;;;;;;31.90;11.65;;;;;;;18.33;68.86;98924.05;1621918;86;21120;-77
2021/09/17 08:27:10;;;;;;;40.40;11.70;;;;;;;18.36;68.70;98926.06;1633476;86;21514;-74
2021/09/17 08:29:43;;;;;;;42.73;15.47;;;;;;;18.43;69.30;98917.00;1648969;85;21989;-75
2021/09/17 08:32:13;;;;;;;24.67;11.50;;;;;;;18.58;69.41;98909.55;1639249;86;21079;-76
2021/09/17 08:34:48;;;;;;;27.87;12.37;;;;;;;18.73;68.44;98907.92;1654431;86;21030;-75
2021/09/17 08:37:15;;;;;;;26.75;11.70;;;;;;;18.83;68.44;98905.02;1616771;86;21609;-75
2021/09/17 08:39:43;;;;;;;22.77;9.38;;;;;;;18.92;67.89;98905.48;1637210;86;21035;-69
2021/09/17 08:42:16;;;;;;;26.87;8.88;;;;;;;19.04;67.86;98898.22;1633754;86;21054;-67
2021/09/17 08:44:50;;;;;;;33.73;13.05;;;;;;;19.24;67.87;98895.13;1651986;86;20916;-67
2021/09/17 08:47:21;;;;;;;36.17;13.58;;;;;;;19.48;67.55;98888.89;1636651;85;21542;-71
2021/09/17 08:49:52;;;;;;;22.55;10.13;;;;;;;19.65;65.96;98890.95;1640666;86;21225;-70
2021/09/17 08:52:25;;;;;;;28.87;11.33;;;;;;;19.75;65.65;98886.02;1635140;86;21056;-69
2021/09/17 08:55:07;;;;;;;25.35;9.10;;;;;;;19.84;65.66;98885.66;1603535;87;21071;-69
2021/09/17 08:57:37;;;;;;;27.85;8.85;;;;;;;19.97;64.52;98872.95;1631386;86;21476;-68
2021/09/17 09:00:10;;;;;;;25.65;7.87;;;;;;;20.09;63.60;98870.39;1641826;86;21034;-68
2021/09/17 09:02:41;;;;;;;28.27;10.20;;;;;;;20.14;64.32;98876.97;1610764;85;23413;-67
2021/09/17 09:05:15;;;;;;;27.37;8.68;;;;;;;20.17;63.73;98866.42;1634353;86;21068;-69
2021/09/17 09:07:44;;;;;;;31.48;10.40;;;;;;;20.12;63.85;98859.85;1644253;86;21594;-69
2021/09/17 09:10:20;;;;;;;33.48;9.45;;;;;;;20.11;63.77;98872.19;1586228;87;20965;-69
2021/09/17 09:12:51;;;;;;;22.95;7.70;;;;;;;20.07;63.84;98875.56;1604568;88;21115;-71
2021/09/17 09:15:26;;;;;;;39.63;8.90;;;;;;;20.09;63.63;98872.58;1604593;88;21003;-71
2021/09/17 09:17:58;;;;;;;25.23;7.25;;;;;;;20.19;63.78;98872.41;1657217;85;21106;-66
2021/09/17 09:20:42;;;;;;;26.40;8.10;;;;;;;20.41;63.34;98869.04;1595481;88;21029;-70
2021/09/17 09:23:26;;;;;;;16.93;7.60;;;;;;;20.52;62.94;98868.44;1582046;87;20956;-68
2021/09/17 09:26:08;;;;;;;35.05;8.58;;;;;;;20.50;63.17;98868.05;1621700;87;21061;-68
2021/09/17 09:28:45;;;;;;;49.42;9.18;;;;;;;20.32;62.65;98858.25;1629524;86;21790;-66
2021/09/17 09:31:18;;;;;;;42.48;10.13;;;;;;;20.16;63.25;98860.66;1621222;87;20925;-67
2021/09/17 09:33:52;;;;;;;52.23;9.75;;;;;;;20.00;63.59;98851.87;1606786;87;21010;-68
2021/09/17 09:36:24;;;;;;;33.48;9.43;;;;;;;19.85;64.31;98858.00;1559229;88;21013;-68
2021/09/17 09:38:54;;;;;;;45.35;10.72;;;;;;;19.71;64.91;98853.78;1621712;87;21021;-68
2021/09/17 09:41:35;;;;;;;34.73;9.85;;;;;;;19.59;65.51;98849.41;1646287;86;21839;-68
2021/09/17 09:44:16;;;;;;;37.45;9.48;;;;;;;19.51;66.02;98851.95;1612013;86;21694;-66
2021/09/17 09:46:51;;;;;;;39.10;9.90;;;;;;;19.47;66.67;98846.94;1577109;89;21057;-68
2021/09/17 09:49:26;;;;;;;49.40;9.48;;;;;;;19.46;66.99;98842.56;1593127;88;21054;-68
2021/09/17 09:52:07;;;;;;;47.80;9.70;;;;;;;19.44;66.71;98842.95;1599167;89;20990;-69
2021/09/17 09:54:38;;;;;;;31.57;8.78;;;;;;;19.45;67.24;98836.79;1605115;89;21184;-68
2021/09/17 09:57:05;;;;;;;25.35;8.83;;;;;;;19.50;67.21;98838.40;1595920;89;21131;-67
2021/09/17 09:59:37;;;;;;;31.15;8.88;;;;;;;19.53;67.42;98840.42;1591390;88;21089;-67
2021/09/17 10:02:09;;;;;;;29.37;8.20;;;;;;;19.58;67.48;98837.27;1593771;89;21073;-67
2021/09/17 10:04:41;;;;;;;46.10;10.53;;;;;;;19.65;66.74;98830.30;1640864;85;21604;-67
2021/09/17 10:07:24;;;;;;;21.02;7.12;;;;;;;19.72;66.63;98836.68;1635111;86;20899;-67
2021/09/17 10:09:55;;;;;;;45.73;10.10;;;;;;;19.81;66.34;98822.98;1678587;85;21070;-67
2021/09/17 10:12:35;;;;;;;41.55;9.93;;;;;;;19.89;66.52;98834.34;1640667;85;26715;-67
2021/09/17 10:15:14;;;;;;;38.92;10.10;;;;;;;19.96;66.43;98833.75;1654185;85;20891;-67
2021/09/17 10:17:41;;;;;;;40.52;10.13;;;;;;;20.07;66.66;98836.55;1654391;86;21517;-67
2021/09/17 10:20:12;;;;;;;24.37;8.88;;;;;;;20.15;66.04;98831.20;1680652;85;21574;-67
2021/09/17 10:22:44;;;;;;;26.45;8.60;;;;;;;20.19;65.74;98833.39;1654486;86;20956;-67
2021/09/17 10:25:27;;;;;;;21.95;8.23;;;;;;;20.24;65.02;98832.96;1654520;86;20963;-68
2021/09/17 10:28:15;;;;;;;23.10;9.00;;;;;;;20.26;65.56;98824.20;1655048;86;20944;-67
2021/09/17 10:30:47;;;;;;;70.75;12.80;;;;;;;20.28;65.79;98824.60;1680851;84;20985;-67
2021/09/17 10:33:25;;;;;;;61.05;10.80;;;;;;;20.34;65.88;98817.44;1654645;86;21170;-67
2021/09/17 10:36:00;;;;;;;26.48;8.65;;;;;;;20.37;65.15;98816.05;1654561;86;21610;-68
2021/09/17 10:38:32;;;;;;;45.95;10.38;;;;;;;20.40;65.01;98814.48;1654552;86;20970;-67
2021/09/17 10:41:06;;;;;;;37.10;9.55;;;;;;;20.41;65.04;98816.08;1654698;86;21447;-67
2021/09/17 10:43:46;;;;;;;67.87;12.63;;;;;;;20.43;65.49;98813.09;1652448;85;20864;-67
2021/09/17 10:46:32;;;;;;;42.35;11.85;;;;;;;20.47;64.99;98808.11;1654263;86;21173;-68
2021/09/17 10:49:01;;;;;;;32.05;9.95;;;;;;;20.50;64.96;98811.48;1654376;86;21613;-67
2021/09/17 10:51:33;;;;;;;37.98;11.93;;;;;;;20.52;64.94;98806.31;1649616;86;20901;-67
2021/09/17 10:54:09;;;;;;;47.60;13.22;;;;;;;20.56;64.84;98798.73;1628626;87;21120;-67
2021/09/17 10:56:53;;;;;;;39.58;11.33;;;;;;;20.63;64.88;98801.52;1649681;86;21541;-68
2021/09/17 10:59:25;;;;;;;36.23;10.65;;;;;;;20.72;65.09;98797.12;1654085;86;21961;-67
2021/09/17 11:02:10;;;;;;;26.45;9.38;;;;;;;20.82;64.49;98798.27;1651948;87;21428;-67
2021/09/17 11:04:49;;;;;;;25.40;9.73;;;;;;;20.92;64.43;98798.05;1625294;86;21697;-67
2021/09/17 11:07:32;;;;;;;24.07;9.43;;;;;;;21.01;64.55;98799.21;1631243;86;20963;-67
2021/09/17 11:10:03;;;;;;;14.50;8.00;;;;;;;21.10;63.88;98800.18;1648594;86;20991;-67
2021/09/17 11:12:42;;;;;;;15.35;7.55;;;;;;;21.15;63.50;98797.58;1633067;87;21172;-67
2021/09/17 11:15:15;;;;;;;19.15;6.85;;;;;;;21.17;63.31;98803.55;1649172;87;21529;-67
2021/09/17 11:17:56;;;;;;;19.55;7.90;;;;;;;21.18;63.21;98793.97;1671376;85;21455;-67
2021/09/17 11:20:31;;;;;;;18.42;7.53;;;;;;;21.17;63.33;98794.58;1598276;87;21543;-67
2021/09/17 11:23:11;;;;;;;17.60;7.55;;;;;;;21.14;63.50;98790.41;1619911;87;20974;-69
2021/09/17 11:25:49;;;;;;;31.02;12.75;;;;;;;21.12;63.54;98788.02;1626970;86;21258;-67
2021/09/17 11:28:29;;;;;;;24.57;9.90;;;;;;;21.09;63.41;98782.64;1633666;87;20987;-67
2021/09/17 11:31:13;;;;;;;21.42;10.48;;;;;;;21.06;63.72;98788.23;1677795;85;20991;-68
2021/09/17 11:33:44;;;;;;;19.48;9.73;;;;;;;21.01;64.14;98785.27;1649801;85;20955;-68
2021/09/17 11:36:14;;;;;;;15.23;8.70;;;;;;;20.99;64.18;98785.47;1617233;87;20992;-68
2021/09/17 11:38:42;;;;;;;22.67;10.13;;;;;;;20.96;64.58;98789.06;1651588;87;21188;-68
2021/09/17 11:41:10;;;;;;;25.25;12.35;;;;;;;20.91;65.03;98778.32;1651826;86;20955;-68
2021/09/17 11:43:53;;;;;;;23.02;9.88;;;;;;;20.86;65.46;98778.12;1651947;86;21454;-68
2021/09/17 11:46:28;;;;;;;26.85;9.40;;;;;;;20.79;65.36;98772.60;1652537;85;20959;-69
2021/09/17 11:48:52;;;;;;;23.95;8.13;;;;;;;20.71;65.49;98772.42;1654274;86;20967;-69